sensor_id;sensor_type;location;lat;lon;timestamp;temperature;humidity
79140;HTU21D;68546;59.142;37.948;2023-04-24T00:01:43;12.79;44.68
79140;HTU21D;68546;59.142;37.948;2023-04-24T00:04:10;12.77;44.75
79140;HTU21D;68546;59.142;37.948;2023-04-24T00:06:37;12.75;44.86
79140;HTU21D;68546;59.142;37.948;2023-04-24T00:09:04;12.73;44.90
79140;HTU21D;68546;59.142;37.948;2023-04-24T00:11:31;12.70;44.96
79140;HTU21D;68546;59.142;37.948;2023-04-24T00:13:57;12.66;45.06
79140;HTU21D;68546;59.142;37.948;2023-04-24T00:16:24;12.65;45.12
79140;HTU21D;68546;59.142;37.948;2023-04-24T00:18:50;12.63;45.22
79140;HTU21D;68546;59.142;37.948;2023-04-24T00:21:18;12.62;45.29
79140;HTU21D;68546;59.142;37.948;2023-04-24T00:23:44;12.60;45.38
79140;HTU21D;68546;59.142;37.948;2023-04-24T00:26:11;12.58;45.41
79140;HTU21D;68546;59.142;37.948;2023-04-24T00:28:37;12.58;45.42
79140;HTU21D;68546;59.142;37.948;2023-04-24T00:31:04;12.53;45.48
79140;HTU21D;68546;59.142;37.948;2023-04-24T00:33:30;12.50;45.54
79140;HTU21D;68546;59.142;37.948;2023-04-24T00:35:56;12.48;45.54
79140;HTU21D;68546;59.142;37.948;2023-04-24T00:38:23;12.46;45.61
79140;HTU21D;68546;59.142;37.948;2023-04-24T00:40:49;12.44;45.65
79140;HTU21D;68546;59.142;37.948;2023-04-24T00:43:16;12.41;45.71
79140;HTU21D;68546;59.142;37.948;2023-04-24T00:45:43;12.38;45.76
79140;HTU21D;68546;59.142;37.948;2023-04-24T00:48:10;12.35;45.85
79140;HTU21D;68546;59.142;37.948;2023-04-24T00:50:38;12.33;45.88
79140;HTU21D;68546;59.142;37.948;2023-04-24T00:53:04;12.31;45.96
79140;HTU21D;68546;59.142;37.948;2023-04-24T00:55:30;12.29;46.01
79140;HTU21D;68546;59.142;37.948;2023-04-24T00:57:58;12.26;46.08
79140;HTU21D;68546;59.142;37.948;2023-04-24T01:00:25;12.23;46.19
79140;HTU21D;68546;59.142;37.948;2023-04-24T01:02:51;12.20;46.22
79140;HTU21D;68546;59.142;37.948;2023-04-24T01:05:19;12.18;46.33
79140;HTU21D;68546;59.142;37.948;2023-04-24T01:07:46;12.18;46.47
79140;HTU21D;68546;59.142;37.948;2023-04-24T01:10:15;12.15;46.51
79140;HTU21D;68546;59.142;37.948;2023-04-24T01:12:45;12.12;46.57
79140;HTU21D;68546;59.142;37.948;2023-04-24T01:15:12;12.11;46.63
79140;HTU21D;68546;59.142;37.948;2023-04-24T01:17:38;12.07;46.70
79140;HTU21D;68546;59.142;37.948;2023-04-24T01:20:06;12.05;46.80
79140;HTU21D;68546;59.142;37.948;2023-04-24T01:22:34;12.05;46.93
79140;HTU21D;68546;59.142;37.948;2023-04-24T01:25:00;12.04;46.99
79140;HTU21D;68546;59.142;37.948;2023-04-24T01:27:30;12.01;47.06
79140;HTU21D;68546;59.142;37.948;2023-04-24T01:29:56;12.01;47.07
79140;HTU21D;68546;59.142;37.948;2023-04-24T01:32:24;12.01;47.18
79140;HTU21D;68546;59.142;37.948;2023-04-24T01:34:51;12.02;47.20
79140;HTU21D;68546;59.142;37.948;2023-04-24T01:37:17;12.00;47.23
79140;HTU21D;68546;59.142;37.948;2023-04-24T01:39:44;11.99;47.33
79140;HTU21D;68546;59.142;37.948;2023-04-24T01:42:12;11.99;47.41
79140;HTU21D;68546;59.142;37.948;2023-04-24T01:44:39;12.00;47.43
79140;HTU21D;68546;59.142;37.948;2023-04-24T01:47:06;11.98;47.50
79140;HTU21D;68546;59.142;37.948;2023-04-24T01:49:32;11.97;47.56
79140;HTU21D;68546;59.142;37.948;2023-04-24T01:51:59;11.97;47.61
79140;HTU21D;68546;59.142;37.948;2023-04-24T01:54:25;11.97;47.70
79140;HTU21D;68546;59.142;37.948;2023-04-24T01:56:52;11.96;47.75
79140;HTU21D;68546;59.142;37.948;2023-04-24T01:59:20;11.96;47.79
79140;HTU21D;68546;59.142;37.948;2023-04-24T02:01:47;11.96;47.76
79140;HTU21D;68546;59.142;37.948;2023-04-24T02:04:14;11.93;47.80
79140;HTU21D;68546;59.142;37.948;2023-04-24T02:06:41;11.92;47.84
79140;HTU21D;68546;59.142;37.948;2023-04-24T02:09:07;11.92;47.90
79140;HTU21D;68546;59.142;37.948;2023-04-24T02:11:34;11.91;48.00
79140;HTU21D;68546;59.142;37.948;2023-04-24T02:14:00;11.92;48.05
79140;HTU21D;68546;59.142;37.948;2023-04-24T02:16:28;11.90;48.09
79140;HTU21D;68546;59.142;37.948;2023-04-24T02:18:58;11.90;48.12
79140;HTU21D;68546;59.142;37.948;2023-04-24T02:21:24;11.91;48.18
79140;HTU21D;68546;59.142;37.948;2023-04-24T02:23:51;11.91;48.24
79140;HTU21D;68546;59.142;37.948;2023-04-24T02:26:17;11.91;48.35
79140;HTU21D;68546;59.142;37.948;2023-04-24T02:28:44;11.93;48.39
79140;HTU21D;68546;59.142;37.948;2023-04-24T02:31:10;11.97;48.47
79140;HTU21D;68546;59.142;37.948;2023-04-24T02:33:37;11.98;48.50
79140;HTU21D;68546;59.142;37.948;2023-04-24T02:36:03;12.01;48.47
79140;HTU21D;68546;59.142;37.948;2023-04-24T02:38:30;12.04;48.41
79140;HTU21D;68546;59.142;37.948;2023-04-24T02:40:56;12.06;48.37
79140;HTU21D;68546;59.142;37.948;2023-04-24T02:43:22;12.08;48.36
79140;HTU21D;68546;59.142;37.948;2023-04-24T02:45:49;12.12;48.37
79140;HTU21D;68546;59.142;37.948;2023-04-24T02:48:15;12.16;48.39
79140;HTU21D;68546;59.142;37.948;2023-04-24T02:50:42;12.23;48.44
79140;HTU21D;68546;59.142;37.948;2023-04-24T02:53:09;12.32;48.44
79140;HTU21D;68546;59.142;37.948;2023-04-24T02:55:35;12.40;48.34
79140;HTU21D;68546;59.142;37.948;2023-04-24T02:58:02;12.46;48.31
79140;HTU21D;68546;59.142;37.948;2023-04-24T03:00:28;12.53;48.33
79140;HTU21D;68546;59.142;37.948;2023-04-24T03:02:55;12.61;48.34
79140;HTU21D;68546;59.142;37.948;2023-04-24T03:05:21;12.69;48.26
79140;HTU21D;68546;59.142;37.948;2023-04-24T03:07:47;12.75;48.24
79140;HTU21D;68546;59.142;37.948;2023-04-24T03:10:14;12.81;48.18
79140;HTU21D;68546;59.142;37.948;2023-04-24T03:12:41;12.87;48.03
79140;HTU21D;68546;59.142;37.948;2023-04-24T03:15:08;12.90;47.92
79140;HTU21D;68546;59.142;37.948;2023-04-24T03:17:36;12.95;47.88
79140;HTU21D;68546;59.142;37.948;2023-04-24T03:20:04;13.04;47.89
79140;HTU21D;68546;59.142;37.948;2023-04-24T03:22:32;13.12;47.81
79140;HTU21D;68546;59.142;37.948;2023-04-24T03:25:00;13.18;47.68
79140;HTU21D;68546;59.142;37.948;2023-04-24T03:27:27;13.26;47.57
79140;HTU21D;68546;59.142;37.948;2023-04-24T03:30:00;13.38;47.59
79140;HTU21D;68546;59.142;37.948;2023-04-24T03:32:36;13.48;47.44
79140;HTU21D;68546;59.142;37.948;2023-04-24T03:35:03;13.61;47.38
79140;HTU21D;68546;59.142;37.948;2023-04-24T03:37:30;13.74;47.19
79140;HTU21D;68546;59.142;37.948;2023-04-24T03:40:14;13.85;46.96
79140;HTU21D;68546;59.142;37.948;2023-04-24T03:42:40;13.99;46.80
79140;HTU21D;68546;59.142;37.948;2023-04-24T03:45:08;14.12;46.58
79140;HTU21D;68546;59.142;37.948;2023-04-24T03:47:37;14.24;46.31
79140;HTU21D;68546;59.142;37.948;2023-04-24T03:50:05;14.34;46.07
79140;HTU21D;68546;59.142;37.948;2023-04-24T03:52:32;14.40;45.87
79140;HTU21D;68546;59.142;37.948;2023-04-24T03:54:59;14.48;45.61
79140;HTU21D;68546;59.142;37.948;2023-04-24T03:57:26;14.51;45.37
79140;HTU21D;68546;59.142;37.948;2023-04-24T04:00:10;14.57;45.37
79140;HTU21D;68546;59.142;37.948;2023-04-24T04:02:41;14.60;45.22
79140;HTU21D;68546;59.142;37.948;2023-04-24T04:05:09;14.68;45.28
79140;HTU21D;68546;59.142;37.948;2023-04-24T04:07:35;14.83;45.27
79140;HTU21D;68546;59.142;37.948;2023-04-24T04:10:02;14.96;45.06
79140;HTU21D;68546;59.142;37.948;2023-04-24T04:12:29;15.08;44.85
79140;HTU21D;68546;59.142;37.948;2023-04-24T04:14:56;15.17;44.62
79140;HTU21D;68546;59.142;37.948;2023-04-24T04:17:22;15.24;44.40
79140;HTU21D;68546;59.142;37.948;2023-04-24T04:19:49;15.30;44.25
79140;HTU21D;68546;59.142;37.948;2023-04-24T04:22:15;15.37;44.02
79140;HTU21D;68546;59.142;37.948;2023-04-24T04:24:45;15.40;43.87
79140;HTU21D;68546;59.142;37.948;2023-04-24T04:27:12;15.45;43.79
79140;HTU21D;68546;59.142;37.948;2023-04-24T04:29:46;15.49;43.67
79140;HTU21D;68546;59.142;37.948;2023-04-24T04:32:16;15.54;43.53
79140;HTU21D;68546;59.142;37.948;2023-04-24T04:34:42;15.57;43.45
79140;HTU21D;68546;59.142;37.948;2023-04-24T04:37:12;15.63;43.32
79140;HTU21D;68546;59.142;37.948;2023-04-24T04:40:02;15.72;43.26
79140;HTU21D;68546;59.142;37.948;2023-04-24T04:42:37;15.78;43.13
79140;HTU21D;68546;59.142;37.948;2023-04-24T04:45:07;15.84;42.99
79140;HTU21D;68546;59.142;37.948;2023-04-24T04:47:47;15.92;42.95
79140;HTU21D;68546;59.142;37.948;2023-04-24T04:50:13;16.01;42.90
79140;HTU21D;68546;59.142;37.948;2023-04-24T04:52:40;16.15;42.88
79140;HTU21D;68546;59.142;37.948;2023-04-24T04:55:23;16.30;42.60
79140;HTU21D;68546;59.142;37.948;2023-04-24T04:58:07;16.43;42.33
79140;HTU21D;68546;59.142;37.948;2023-04-24T05:00:34;16.55;42.01
79140;HTU21D;68546;59.142;37.948;2023-04-24T05:03:12;16.62;41.84
79140;HTU21D;68546;59.142;37.948;2023-04-24T05:05:39;16.70;41.62
79140;HTU21D;68546;59.142;37.948;2023-04-24T05:08:09;16.77;41.45
79140;HTU21D;68546;59.142;37.948;2023-04-24T05:10:36;16.84;41.23
79140;HTU21D;68546;59.142;37.948;2023-04-24T05:13:06;16.89;41.04
79140;HTU21D;68546;59.142;37.948;2023-04-24T05:15:33;16.93;40.96
79140;HTU21D;68546;59.142;37.948;2023-04-24T05:18:00;16.99;40.84
79140;HTU21D;68546;59.142;37.948;2023-04-24T05:20:28;17.03;40.74
79140;HTU21D;68546;59.142;37.948;2023-04-24T05:22:55;17.08;40.58
79140;HTU21D;68546;59.142;37.948;2023-04-24T05:25:22;17.15;40.38
79140;HTU21D;68546;59.142;37.948;2023-04-24T05:28:05;17.19;40.20
79140;HTU21D;68546;59.142;37.948;2023-04-24T05:30:34;17.22;40.09
79140;HTU21D;68546;59.142;37.948;2023-04-24T05:33:01;17.26;40.02
79140;HTU21D;68546;59.142;37.948;2023-04-24T05:35:28;17.30;39.81
79140;HTU21D;68546;59.142;37.948;2023-04-24T05:37:55;17.33;39.78
79140;HTU21D;68546;59.142;37.948;2023-04-24T05:40:22;17.37;39.50
79140;HTU21D;68546;59.142;37.948;2023-04-24T05:42:48;17.38;39.43
79140;HTU21D;68546;59.142;37.948;2023-04-24T05:45:15;17.43;39.29
79140;HTU21D;68546;59.142;37.948;2023-04-24T05:47:44;17.46;39.32
79140;HTU21D;68546;59.142;37.948;2023-04-24T05:50:11;17.50;39.18
79140;HTU21D;68546;59.142;37.948;2023-04-24T05:52:38;17.54;39.20
79140;HTU21D;68546;59.142;37.948;2023-04-24T05:55:13;17.60;39.12
79140;HTU21D;68546;59.142;37.948;2023-04-24T05:57:41;17.65;39.22
79140;HTU21D;68546;59.142;37.948;2023-04-24T06:00:09;17.73;39.07
79140;HTU21D;68546;59.142;37.948;2023-04-24T06:02:47;17.79;38.80
79140;HTU21D;68546;59.142;37.948;2023-04-24T06:05:15;17.84;38.60
79140;HTU21D;68546;59.142;37.948;2023-04-24T06:07:41;17.89;38.58
79140;HTU21D;68546;59.142;37.948;2023-04-24T06:10:09;17.94;38.47
79140;HTU21D;68546;59.142;37.948;2023-04-24T06:12:42;17.98;38.37
79140;HTU21D;68546;59.142;37.948;2023-04-24T06:15:15;18.06;38.30
79140;HTU21D;68546;59.142;37.948;2023-04-24T06:17:53;18.09;38.20
79140;HTU21D;68546;59.142;37.948;2023-04-24T06:20:24;18.15;38.12
79140;HTU21D;68546;59.142;37.948;2023-04-24T06:22:51;18.19;38.08
79140;HTU21D;68546;59.142;37.948;2023-04-24T06:25:19;18.24;38.02
79140;HTU21D;68546;59.142;37.948;2023-04-24T06:27:46;18.30;37.90
79140;HTU21D;68546;59.142;37.948;2023-04-24T06:30:14;18.36;37.84
79140;HTU21D;68546;59.142;37.948;2023-04-24T06:32:42;18.42;37.72
79140;HTU21D;68546;59.142;37.948;2023-04-24T06:35:09;18.48;37.72
79140;HTU21D;68546;59.142;37.948;2023-04-24T06:37:42;18.55;37.57
79140;HTU21D;68546;59.142;37.948;2023-04-24T06:40:09;18.61;37.47
79140;HTU21D;68546;59.142;37.948;2023-04-24T06:42:36;18.67;37.27
79140;HTU21D;68546;59.142;37.948;2023-04-24T06:45:04;18.73;37.18
79140;HTU21D;68546;59.142;37.948;2023-04-24T06:47:32;18.81;37.12
79140;HTU21D;68546;59.142;37.948;2023-04-24T06:49:58;18.86;36.97
79140;HTU21D;68546;59.142;37.948;2023-04-24T06:52:25;18.95;36.89
79140;HTU21D;68546;59.142;37.948;2023-04-24T06:54:51;19.02;36.85
79140;HTU21D;68546;59.142;37.948;2023-04-24T06:57:18;19.10;36.69
79140;HTU21D;68546;59.142;37.948;2023-04-24T06:59:45;19.14;36.52
79140;HTU21D;68546;59.142;37.948;2023-04-24T07:02:11;19.16;36.35
79140;HTU21D;68546;59.142;37.948;2023-04-24T07:04:38;19.21;36.35
79140;HTU21D;68546;59.142;37.948;2023-04-24T07:07:04;19.26;36.31
79140;HTU21D;68546;59.142;37.948;2023-04-24T07:09:32;19.32;36.27
79140;HTU21D;68546;59.142;37.948;2023-04-24T07:12:01;19.41;36.18
79140;HTU21D;68546;59.142;37.948;2023-04-24T07:14:27;19.48;36.20
79140;HTU21D;68546;59.142;37.948;2023-04-24T07:16:53;19.57;36.02
79140;HTU21D;68546;59.142;37.948;2023-04-24T07:19:20;19.66;35.85
79140;HTU21D;68546;59.142;37.948;2023-04-24T07:21:46;19.74;35.69
79140;HTU21D;68546;59.142;37.948;2023-04-24T07:24:12;19.82;35.51
79140;HTU21D;68546;59.142;37.948;2023-04-24T07:26:39;19.87;35.44
79140;HTU21D;68546;59.142;37.948;2023-04-24T07:29:07;19.92;35.25
79140;HTU21D;68546;59.142;37.948;2023-04-24T07:31:34;19.97;35.18
79140;HTU21D;68546;59.142;37.948;2023-04-24T07:34:04;20.02;35.13
79140;HTU21D;68546;59.142;37.948;2023-04-24T07:36:32;20.09;34.95
79140;HTU21D;68546;59.142;37.948;2023-04-24T07:38:59;20.13;34.82
79140;HTU21D;68546;59.142;37.948;2023-04-24T07:41:25;20.20;34.76
79140;HTU21D;68546;59.142;37.948;2023-04-24T07:43:53;20.27;34.63
79140;HTU21D;68546;59.142;37.948;2023-04-24T07:46:20;20.35;34.65
79140;HTU21D;68546;59.142;37.948;2023-04-24T07:48:46;20.45;34.60
79140;HTU21D;68546;59.142;37.948;2023-04-24T07:51:15;20.54;34.46
79140;HTU21D;68546;59.142;37.948;2023-04-24T07:53:43;20.62;34.37
79140;HTU21D;68546;59.142;37.948;2023-04-24T07:56:10;20.71;34.12
79140;HTU21D;68546;59.142;37.948;2023-04-24T07:58:37;20.77;34.08
79140;HTU21D;68546;59.142;37.948;2023-04-24T08:01:06;20.83;33.96
79140;HTU21D;68546;59.142;37.948;2023-04-24T08:03:33;20.87;33.79
79140;HTU21D;68546;59.142;37.948;2023-04-24T08:06:00;20.92;33.73
79140;HTU21D;68546;59.142;37.948;2023-04-24T08:08:28;20.95;33.64
79140;HTU21D;68546;59.142;37.948;2023-04-24T08:10:56;20.99;33.54
79140;HTU21D;68546;59.142;37.948;2023-04-24T08:13:22;21.06;33.43
79140;HTU21D;68546;59.142;37.948;2023-04-24T08:15:49;21.09;33.33
79140;HTU21D;68546;59.142;37.948;2023-04-24T08:18:15;21.16;33.37
79140;HTU21D;68546;59.142;37.948;2023-04-24T08:20:43;21.20;33.18
79140;HTU21D;68546;59.142;37.948;2023-04-24T08:23:12;21.25;33.07
79140;HTU21D;68546;59.142;37.948;2023-04-24T08:25:39;21.29;32.96
79140;HTU21D;68546;59.142;37.948;2023-04-24T08:28:06;21.33;32.86
79140;HTU21D;68546;59.142;37.948;2023-04-24T08:30:34;21.34;32.80
79140;HTU21D;68546;59.142;37.948;2023-04-24T08:33:00;21.35;32.71
79140;HTU21D;68546;59.142;37.948;2023-04-24T08:35:27;21.34;32.60
79140;HTU21D;68546;59.142;37.948;2023-04-24T08:37:54;21.32;32.46
79140;HTU21D;68546;59.142;37.948;2023-04-24T08:40:27;21.29;32.45
79140;HTU21D;68546;59.142;37.948;2023-04-24T08:42:59;21.25;32.44
79140;HTU21D;68546;59.142;37.948;2023-04-24T08:45:26;21.21;32.39
79140;HTU21D;68546;59.142;37.948;2023-04-24T08:47:53;21.16;32.28
79140;HTU21D;68546;59.142;37.948;2023-04-24T08:50:22;21.13;32.30
79140;HTU21D;68546;59.142;37.948;2023-04-24T08:52:52;21.09;32.33
79140;HTU21D;68546;59.142;37.948;2023-04-24T08:55:20;21.07;32.40
79140;HTU21D;68546;59.142;37.948;2023-04-24T08:57:51;21.06;32.36
79140;HTU21D;68546;59.142;37.948;2023-04-24T09:00:20;21.03;32.33
79140;HTU21D;68546;59.142;37.948;2023-04-24T09:02:49;21.03;32.35
79140;HTU21D;68546;59.142;37.948;2023-04-24T09:05:17;21.05;32.24
79140;HTU21D;68546;59.142;37.948;2023-04-24T09:07:53;21.06;32.35
79140;HTU21D;68546;59.142;37.948;2023-04-24T09:10:24;21.07;32.33
79140;HTU21D;68546;59.142;37.948;2023-04-24T09:12:52;21.08;32.14
79140;HTU21D;68546;59.142;37.948;2023-04-24T09:15:20;21.10;32.17
79140;HTU21D;68546;59.142;37.948;2023-04-24T09:17:47;21.16;32.00
79140;HTU21D;68546;59.142;37.948;2023-04-24T09:20:13;21.20;31.81
79140;HTU21D;68546;59.142;37.948;2023-04-24T09:22:40;21.27;31.60
79140;HTU21D;68546;59.142;37.948;2023-04-24T09:25:08;21.34;31.27
79140;HTU21D;68546;59.142;37.948;2023-04-24T09:27:35;21.44;31.02
79140;HTU21D;68546;59.142;37.948;2023-04-24T09:30:03;21.51;30.77
79140;HTU21D;68546;59.142;37.948;2023-04-24T09:32:30;21.60;30.45
79140;HTU21D;68546;59.142;37.948;2023-04-24T09:35:12;21.70;30.15
79140;HTU21D;68546;59.142;37.948;2023-04-24T09:37:44;21.82;29.58
79140;HTU21D;68546;59.142;37.948;2023-04-24T09:42:39;22.10;28.96
79140;HTU21D;68546;59.142;37.948;2023-04-24T09:45:10;22.26;28.53
79140;HTU21D;68546;59.142;37.948;2023-04-24T09:47:38;22.43;28.42
79140;HTU21D;68546;59.142;37.948;2023-04-24T09:50:15;22.60;28.19
79140;HTU21D;68546;59.142;37.948;2023-04-24T09:52:47;22.73;27.70
79140;HTU21D;68546;59.142;37.948;2023-04-24T09:55:21;22.87;27.55
79140;HTU21D;68546;59.142;37.948;2023-04-24T09:57:49;22.98;27.04
79140;HTU21D;68546;59.142;37.948;2023-04-24T10:00:25;23.13;26.65
79140;HTU21D;68546;59.142;37.948;2023-04-24T10:02:57;23.22;26.06
79140;HTU21D;68546;59.142;37.948;2023-04-24T10:05:34;23.27;25.85
79140;HTU21D;68546;59.142;37.948;2023-04-24T10:08:04;23.24;25.43
79140;HTU21D;68546;59.142;37.948;2023-04-24T10:10:32;23.20;25.25
79140;HTU21D;68546;59.142;37.948;2023-04-24T10:12:59;23.18;25.30
79140;HTU21D;68546;59.142;37.948;2023-04-24T10:15:26;23.18;25.36
79140;HTU21D;68546;59.142;37.948;2023-04-24T10:17:53;23.22;25.27
79140;HTU21D;68546;59.142;37.948;2023-04-24T10:20:24;23.28;25.10
79140;HTU21D;68546;59.142;37.948;2023-04-24T10:22:54;23.38;25.15
79140;HTU21D;68546;59.142;37.948;2023-04-24T10:25:24;23.50;24.88
79140;HTU21D;68546;59.142;37.948;2023-04-24T10:27:53;23.57;24.52
79140;HTU21D;68546;59.142;37.948;2023-04-24T10:30:23;23.59;24.32
79140;HTU21D;68546;59.142;37.948;2023-04-24T10:32:51;23.60;24.14
79140;HTU21D;68546;59.142;37.948;2023-04-24T10:35:18;23.59;23.79
79140;HTU21D;68546;59.142;37.948;2023-04-24T10:37:50;23.55;23.71
79140;HTU21D;68546;59.142;37.948;2023-04-24T10:40:30;23.51;23.82
79140;HTU21D;68546;59.142;37.948;2023-04-24T10:42:57;23.47;23.75
79140;HTU21D;68546;59.142;37.948;2023-04-24T10:45:24;23.43;23.83
79140;HTU21D;68546;59.142;37.948;2023-04-24T10:50:19;23.42;23.78
79140;HTU21D;68546;59.142;37.948;2023-04-24T10:52:48;23.42;23.62
79140;HTU21D;68546;59.142;37.948;2023-04-24T10:55:44;23.43;23.79
79140;HTU21D;68546;59.142;37.948;2023-04-24T10:58:13;23.41;23.78
79140;HTU21D;68546;59.142;37.948;2023-04-24T11:00:41;23.39;23.62
79140;HTU21D;68546;59.142;37.948;2023-04-24T11:03:31;23.40;23.80
79140;HTU21D;68546;59.142;37.948;2023-04-24T11:06:04;23.40;23.83
79140;HTU21D;68546;59.142;37.948;2023-04-24T11:08:45;23.41;23.65
79140;HTU21D;68546;59.142;37.948;2023-04-24T11:11:17;23.41;23.54
79140;HTU21D;68546;59.142;37.948;2023-04-24T11:16:28;23.39;23.33
79140;HTU21D;68546;59.142;37.948;2023-04-24T11:19:09;23.36;23.44
79140;HTU21D;68546;59.142;37.948;2023-04-24T11:22:02;23.34;23.30
79140;HTU21D;68546;59.142;37.948;2023-04-24T11:29:44;23.26;23.55
79140;HTU21D;68546;59.142;37.948;2023-04-24T11:35:17;23.21;23.35
79140;HTU21D;68546;59.142;37.948;2023-04-24T11:37:45;23.20;23.33
79140;HTU21D;68546;59.142;37.948;2023-04-24T11:40:17;23.20;23.29
79140;HTU21D;68546;59.142;37.948;2023-04-24T11:42:49;23.20;23.28
79140;HTU21D;68546;59.142;37.948;2023-04-24T11:45:34;23.20;23.17
79140;HTU21D;68546;59.142;37.948;2023-04-24T11:48:00;23.18;23.21
79140;HTU21D;68546;59.142;37.948;2023-04-24T11:50:29;23.18;23.24
79140;HTU21D;68546;59.142;37.948;2023-04-24T11:52:56;23.20;23.30
79140;HTU21D;68546;59.142;37.948;2023-04-24T11:55:25;23.21;23.17
79140;HTU21D;68546;59.142;37.948;2023-04-24T11:57:59;23.20;23.14
79140;HTU21D;68546;59.142;37.948;2023-04-24T12:00:28;23.21;23.27
79140;HTU21D;68546;59.142;37.948;2023-04-24T12:03:11;23.23;23.27
79140;HTU21D;68546;59.142;37.948;2023-04-24T12:05:38;23.23;23.18
79140;HTU21D;68546;59.142;37.948;2023-04-24T12:08:06;23.24;23.08
79140;HTU21D;68546;59.142;37.948;2023-04-24T12:10:34;23.26;22.89
79140;HTU21D;68546;59.142;37.948;2023-04-24T12:13:00;23.27;22.73
79140;HTU21D;68546;59.142;37.948;2023-04-24T12:15:29;23.30;22.65
79140;HTU21D;68546;59.142;37.948;2023-04-24T12:17:56;23.31;22.67
79140;HTU21D;68546;59.142;37.948;2023-04-24T12:20:30;23.32;22.62
79140;HTU21D;68546;59.142;37.948;2023-04-24T12:23:01;23.32;22.59
79140;HTU21D;68546;59.142;37.948;2023-04-24T12:25:29;23.32;22.60
79140;HTU21D;68546;59.142;37.948;2023-04-24T12:30:33;23.30;22.62
79140;HTU21D;68546;59.142;37.948;2023-04-24T12:33:00;23.32;22.52
79140;HTU21D;68546;59.142;37.948;2023-04-24T12:35:32;23.36;22.43
79140;HTU21D;68546;59.142;37.948;2023-04-24T12:38:13;23.35;22.47
79140;HTU21D;68546;59.142;37.948;2023-04-24T12:40:43;23.35;22.46
79140;HTU21D;68546;59.142;37.948;2023-04-24T12:43:17;23.36;22.43
79140;HTU21D;68546;59.142;37.948;2023-04-24T12:45:47;23.36;22.58
79140;HTU21D;68546;59.142;37.948;2023-04-24T12:48:13;23.36;22.45
79140;HTU21D;68546;59.142;37.948;2023-04-24T12:50:40;23.35;22.34
79140;HTU21D;68546;59.142;37.948;2023-04-24T12:53:08;23.35;22.37
79140;HTU21D;68546;59.142;37.948;2023-04-24T12:55:36;23.32;22.31
79140;HTU21D;68546;59.142;37.948;2023-04-24T12:58:04;23.31;22.37
79140;HTU21D;68546;59.142;37.948;2023-04-24T13:00:33;23.30;22.27
79140;HTU21D;68546;59.142;37.948;2023-04-24T13:03:02;23.29;22.33
79140;HTU21D;68546;59.142;37.948;2023-04-24T13:05:28;23.29;22.27
79140;HTU21D;68546;59.142;37.948;2023-04-24T13:07:57;23.28;22.25
79140;HTU21D;68546;59.142;37.948;2023-04-24T13:10:24;23.26;22.22
79140;HTU21D;68546;59.142;37.948;2023-04-24T13:12:51;23.27;22.23
79140;HTU21D;68546;59.142;37.948;2023-04-24T13:15:17;23.26;22.18
79140;HTU21D;68546;59.142;37.948;2023-04-24T13:17:43;23.25;22.18
79140;HTU21D;68546;59.142;37.948;2023-04-24T13:20:10;23.27;22.23
79140;HTU21D;68546;59.142;37.948;2023-04-24T13:22:37;23.28;22.27
79140;HTU21D;68546;59.142;37.948;2023-04-24T13:25:05;23.30;22.30
79140;HTU21D;68546;59.142;37.948;2023-04-24T13:27:32;23.30;22.27
79140;HTU21D;68546;59.142;37.948;2023-04-24T13:29:59;23.32;22.22
79140;HTU21D;68546;59.142;37.948;2023-04-24T13:32:26;23.31;22.29
79140;HTU21D;68546;59.142;37.948;2023-04-24T13:34:53;23.32;22.18
79140;HTU21D;68546;59.142;37.948;2023-04-24T13:37:19;23.32;22.17
79140;HTU21D;68546;59.142;37.948;2023-04-24T13:39:46;23.30;22.12
79140;HTU21D;68546;59.142;37.948;2023-04-24T13:42:12;23.28;22.13
79140;HTU21D;68546;59.142;37.948;2023-04-24T13:44:41;23.27;22.24
79140;HTU21D;68546;59.142;37.948;2023-04-24T13:47:08;23.26;22.20
79140;HTU21D;68546;59.142;37.948;2023-04-24T13:49:35;23.25;22.19
79140;HTU21D;68546;59.142;37.948;2023-04-24T13:52:02;23.24;22.30
79140;HTU21D;68546;59.142;37.948;2023-04-24T13:54:28;23.21;22.29
79140;HTU21D;68546;59.142;37.948;2023-04-24T13:56:58;23.17;22.42
79140;HTU21D;68546;59.142;37.948;2023-04-24T13:59:25;23.13;22.21
79140;HTU21D;68546;59.142;37.948;2023-04-24T14:01:52;23.10;22.28
79140;HTU21D;68546;59.142;37.948;2023-04-24T14:04:21;23.09;22.36
79140;HTU21D;68546;59.142;37.948;2023-04-24T14:06:48;23.07;22.31
79140;HTU21D;68546;59.142;37.948;2023-04-24T14:09:14;23.02;22.23
79140;HTU21D;68546;59.142;37.948;2023-04-24T14:11:42;22.99;22.21
79140;HTU21D;68546;59.142;37.948;2023-04-24T14:14:08;22.96;22.24
79140;HTU21D;68546;59.142;37.948;2023-04-24T14:16:35;22.95;22.29
79140;HTU21D;68546;59.142;37.948;2023-04-24T14:19:01;22.93;22.31
79140;HTU21D;68546;59.142;37.948;2023-04-24T14:21:27;22.90;22.31
79140;HTU21D;68546;59.142;37.948;2023-04-24T14:23:54;22.88;22.24
79140;HTU21D;68546;59.142;37.948;2023-04-24T14:26:20;22.85;22.36
79140;HTU21D;68546;59.142;37.948;2023-04-24T14:28:47;22.81;22.43
79140;HTU21D;68546;59.142;37.948;2023-04-24T14:31:14;22.79;22.47
79140;HTU21D;68546;59.142;37.948;2023-04-24T14:33:40;22.73;22.47
79140;HTU21D;68546;59.142;37.948;2023-04-24T14:36:07;22.71;22.53
79140;HTU21D;68546;59.142;37.948;2023-04-24T14:38:34;22.67;22.56
79140;HTU21D;68546;59.142;37.948;2023-04-24T14:41:00;22.64;22.54
79140;HTU21D;68546;59.142;37.948;2023-04-24T14:43:27;22.62;22.51
79140;HTU21D;68546;59.142;37.948;2023-04-24T14:45:53;22.58;22.56
79140;HTU21D;68546;59.142;37.948;2023-04-24T14:48:20;22.56;22.57
79140;HTU21D;68546;59.142;37.948;2023-04-24T14:50:47;22.52;22.66
79140;HTU21D;68546;59.142;37.948;2023-04-24T14:53:14;22.51;22.66
79140;HTU21D;68546;59.142;37.948;2023-04-24T14:55:43;22.48;22.82
79140;HTU21D;68546;59.142;37.948;2023-04-24T14:58:10;22.44;22.76
79140;HTU21D;68546;59.142;37.948;2023-04-24T15:00:36;22.44;22.77
79140;HTU21D;68546;59.142;37.948;2023-04-24T15:03:03;22.42;22.77
79140;HTU21D;68546;59.142;37.948;2023-04-24T15:05:29;22.40;22.82
79140;HTU21D;68546;59.142;37.948;2023-04-24T15:07:56;22.39;22.90
79140;HTU21D;68546;59.142;37.948;2023-04-24T15:10:23;22.37;22.82
79140;HTU21D;68546;59.142;37.948;2023-04-24T15:12:51;22.35;22.88
79140;HTU21D;68546;59.142;37.948;2023-04-24T15:15:18;22.34;23.04
79140;HTU21D;68546;59.142;37.948;2023-04-24T15:17:46;22.29;23.01
79140;HTU21D;68546;59.142;37.948;2023-04-24T15:20:13;22.29;23.11
79140;HTU21D;68546;59.142;37.948;2023-04-24T15:22:40;22.26;23.13
79140;HTU21D;68546;59.142;37.948;2023-04-24T15:25:07;22.25;23.08
79140;HTU21D;68546;59.142;37.948;2023-04-24T15:27:44;22.24;23.14
79140;HTU21D;68546;59.142;37.948;2023-04-24T15:30:12;22.21;23.24